sensor_id;sensor_type;location;lat;lon;timestamp;temperature;humidity
32293;DHT22;43233;48.608;8.838;2022-09-24T00:01:13;12.00;99.90
32293;DHT22;43233;48.608;8.838;2022-09-24T00:03:40;12.10;99.90
32293;DHT22;43233;48.608;8.838;2022-09-24T00:06:07;12.10;99.90
32293;DHT22;43233;48.608;8.838;2022-09-24T00:08:34;12.20;99.90
32293;DHT22;43233;48.608;8.838;2022-09-24T00:11:02;12.20;99.90
32293;DHT22;43233;48.608;8.838;2022-09-24T00:13:28;12.20;99.90
32293;DHT22;43233;48.608;8.838;2022-09-24T00:15:54;12.10;99.90
32293;DHT22;43233;48.608;8.838;2022-09-24T00:18:20;12.10;99.90
32293;DHT22;43233;48.608;8.838;2022-09-24T00:20:47;12.10;99.90
32293;DHT22;43233;48.608;8.838;2022-09-24T00:23:12;12.00;99.90
32293;DHT22;43233;48.608;8.838;2022-09-24T00:25:42;11.90;99.90
32293;DHT22;43233;48.608;8.838;2022-09-24T00:28:27;11.90;99.90
32293;DHT22;43233;48.608;8.838;2022-09-24T00:30:53;11.90;99.90
32293;DHT22;43233;48.608;8.838;2022-09-24T00:33:19;11.80;99.90
32293;DHT22;43233;48.608;8.838;2022-09-24T00:35:45;11.80;99.90
32293;DHT22;43233;48.608;8.838;2022-09-24T00:38:11;11.80;99.90
32293;DHT22;43233;48.608;8.838;2022-09-24T00:40:37;11.70;99.90
32293;DHT22;43233;48.608;8.838;2022-09-24T00:43:26;11.80;99.90
32293;DHT22;43233;48.608;8.838;2022-09-24T00:45:55;11.80;99.90
32293;DHT22;43233;48.608;8.838;2022-09-24T00:48:22;11.70;99.90
32293;DHT22;43233;48.608;8.838;2022-09-24T00:50:48;11.70;99.90
32293;DHT22;43233;48.608;8.838;2022-09-24T00:53:17;11.60;99.90
32293;DHT22;43233;48.608;8.838;2022-09-24T00:55:46;11.50;99.90
32293;DHT22;43233;48.608;8.838;2022-09-24T00:58:12;11.50;99.90
32293;DHT22;43233;48.608;8.838;2022-09-24T01:00:41;11.40;99.90
32293;DHT22;43233;48.608;8.838;2022-09-24T01:03:21;11.40;99.90
32293;DHT22;43233;48.608;8.838;2022-09-24T01:05:47;11.40;99.90
32293;DHT22;43233;48.608;8.838;2022-09-24T01:08:15;11.40;99.90
32293;DHT22;43233;48.608;8.838;2022-09-24T01:13:49;11.30;99.90
32293;DHT22;43233;48.608;8.838;2022-09-24T01:21:49;11.10;99.90
32293;DHT22;43233;48.608;8.838;2022-09-24T01:24:33;11.10;99.90
32293;DHT22;43233;48.608;8.838;2022-09-24T01:30:12;11.00;99.90
32293;DHT22;43233;48.608;8.838;2022-09-24T01:32:52;11.00;99.90
32293;DHT22;43233;48.608;8.838;2022-09-24T01:35:36;10.90;99.90
32293;DHT22;43233;48.608;8.838;2022-09-24T01:38:07;10.90;99.90
32293;DHT22;43233;48.608;8.838;2022-09-24T01:40:33;10.90;99.90
32293;DHT22;43233;48.608;8.838;2022-09-24T01:43:03;10.80;99.90
32293;DHT22;43233;48.608;8.838;2022-09-24T01:45:30;10.80;99.90
32293;DHT22;43233;48.608;8.838;2022-09-24T01:48:01;10.70;99.90
32293;DHT22;43233;48.608;8.838;2022-09-24T01:50:32;10.50;99.90
32293;DHT22;43233;48.608;8.838;2022-09-24T01:53:09;10.50;99.90
32293;DHT22;43233;48.608;8.838;2022-09-24T01:55:42;10.50;99.90
32293;DHT22;43233;48.608;8.838;2022-09-24T01:58:39;10.40;99.90
32293;DHT22;43233;48.608;8.838;2022-09-24T02:01:09;10.30;99.90
32293;DHT22;43233;48.608;8.838;2022-09-24T02:03:40;10.20;99.90
32293;DHT22;43233;48.608;8.838;2022-09-24T02:06:22;10.10;99.90
32293;DHT22;43233;48.608;8.838;2022-09-24T02:08:49;10.10;99.90
32293;DHT22;43233;48.608;8.838;2022-09-24T02:11:20;10.10;99.90
32293;DHT22;43233;48.608;8.838;2022-09-24T02:13:48;10.20;99.90
32293;DHT22;43233;48.608;8.838;2022-09-24T02:16:18;10.20;99.90
32293;DHT22;43233;48.608;8.838;2022-09-24T02:18:48;10.30;99.90
32293;DHT22;43233;48.608;8.838;2022-09-24T02:21:17;10.30;99.90
32293;DHT22;43233;48.608;8.838;2022-09-24T02:23:51;10.40;99.90
32293;DHT22;43233;48.608;8.838;2022-09-24T02:26:19;10.40;99.90
32293;DHT22;43233;48.608;8.838;2022-09-24T02:28:45;10.50;99.90
32293;DHT22;43233;48.608;8.838;2022-09-24T02:31:14;10.50;99.90
32293;DHT22;43233;48.608;8.838;2022-09-24T02:33:44;10.70;99.90
32293;DHT22;43233;48.608;8.838;2022-09-24T02:36:29;10.70;99.90
32293;DHT22;43233;48.608;8.838;2022-09-24T02:38:56;10.70;99.90
32293;DHT22;43233;48.608;8.838;2022-09-24T02:41:22;10.70;99.90
32293;DHT22;43233;48.608;8.838;2022-09-24T02:43:49;10.70;99.90
32293;DHT22;43233;48.608;8.838;2022-09-24T02:46:15;10.70;99.90
32293;DHT22;43233;48.608;8.838;2022-09-24T02:48:41;10.70;99.90
32293;DHT22;43233;48.608;8.838;2022-09-24T02:51:07;10.60;99.90
32293;DHT22;43233;48.608;8.838;2022-09-24T02:53:33;10.60;99.90
32293;DHT22;43233;48.608;8.838;2022-09-24T02:55:59;10.60;99.90
32293;DHT22;43233;48.608;8.838;2022-09-24T02:58:26;10.70;99.90
32293;DHT22;43233;48.608;8.838;2022-09-24T03:00:52;10.70;99.90
32293;DHT22;43233;48.608;8.838;2022-09-24T03:03:22;10.70;99.90
32293;DHT22;43233;48.608;8.838;2022-09-24T03:05:49;10.70;99.90
32293;DHT22;43233;48.608;8.838;2022-09-24T03:08:18;10.70;99.90
32293;DHT22;43233;48.608;8.838;2022-09-24T03:10:43;10.80;99.90
32293;DHT22;43233;48.608;8.838;2022-09-24T03:13:09;10.80;99.90
32293;DHT22;43233;48.608;8.838;2022-09-24T03:15:35;10.80;99.90
32293;DHT22;43233;48.608;8.838;2022-09-24T03:18:01;10.80;99.90
32293;DHT22;43233;48.608;8.838;2022-09-24T03:20:27;10.80;99.90
32293;DHT22;43233;48.608;8.838;2022-09-24T03:22:53;10.90;99.90
32293;DHT22;43233;48.608;8.838;2022-09-24T03:25:19;10.80;99.90
32293;DHT22;43233;48.608;8.838;2022-09-24T03:27:45;10.90;99.90
32293;DHT22;43233;48.608;8.838;2022-09-24T03:30:11;10.90;99.90
32293;DHT22;43233;48.608;8.838;2022-09-24T03:32:55;10.90;99.90
32293;DHT22;43233;48.608;8.838;2022-09-24T03:35:21;10.90;99.90
32293;DHT22;43233;48.608;8.838;2022-09-24T03:37:47;10.90;99.90
32293;DHT22;43233;48.608;8.838;2022-09-24T03:40:12;10.90;99.90
32293;DHT22;43233;48.608;8.838;2022-09-24T03:42:38;11.00;99.90
32293;DHT22;43233;48.608;8.838;2022-09-24T03:45:05;11.00;99.90
32293;DHT22;43233;48.608;8.838;2022-09-24T03:47:31;11.00;99.90
32293;DHT22;43233;48.608;8.838;2022-09-24T03:49:57;11.00;99.90
32293;DHT22;43233;48.608;8.838;2022-09-24T03:52:23;10.90;99.90
32293;DHT22;43233;48.608;8.838;2022-09-24T03:54:49;10.90;99.90
32293;DHT22;43233;48.608;8.838;2022-09-24T03:57:15;10.80;99.90
32293;DHT22;43233;48.608;8.838;2022-09-24T03:59:41;10.80;99.90
32293;DHT22;43233;48.608;8.838;2022-09-24T04:02:07;10.90;99.90
32293;DHT22;43233;48.608;8.838;2022-09-24T04:04:33;10.90;99.90
32293;DHT22;43233;48.608;8.838;2022-09-24T04:06:59;11.00;99.90
32293;DHT22;43233;48.608;8.838;2022-09-24T04:09:24;11.00;99.90
32293;DHT22;43233;48.608;8.838;2022-09-24T04:11:50;11.00;99.90
32293;DHT22;43233;48.608;8.838;2022-09-24T04:14:17;11.10;99.90
32293;DHT22;43233;48.608;8.838;2022-09-24T04:16:43;11.10;99.90
32293;DHT22;43233;48.608;8.838;2022-09-24T04:19:10;11.10;99.90
32293;DHT22;43233;48.608;8.838;2022-09-24T04:21:36;11.10;99.90
32293;DHT22;43233;48.608;8.838;2022-09-24T04:24:02;11.10;99.90
32293;DHT22;43233;48.608;8.838;2022-09-24T04:26:28;11.10;99.90
32293;DHT22;43233;48.608;8.838;2022-09-24T04:28:54;11.10;99.90
32293;DHT22;43233;48.608;8.838;2022-09-24T04:31:19;11.20;99.90
32293;DHT22;43233;48.608;8.838;2022-09-24T04:33:45;11.20;99.90
32293;DHT22;43233;48.608;8.838;2022-09-24T04:36:11;11.20;99.90
32293;DHT22;43233;48.608;8.838;2022-09-24T04:38:36;11.30;99.90
32293;DHT22;43233;48.608;8.838;2022-09-24T04:41:06;11.20;99.90
32293;DHT22;43233;48.608;8.838;2022-09-24T04:43:32;11.30;99.90
32293;DHT22;43233;48.608;8.838;2022-09-24T04:45:58;11.30;99.90
32293;DHT22;43233;48.608;8.838;2022-09-24T04:48:24;11.30;99.90
32293;DHT22;43233;48.608;8.838;2022-09-24T04:50:50;11.20;99.90
32293;DHT22;43233;48.608;8.838;2022-09-24T04:53:16;11.30;99.90
32293;DHT22;43233;48.608;8.838;2022-09-24T04:55:41;11.20;99.90
32293;DHT22;43233;48.608;8.838;2022-09-24T04:58:07;11.20;99.90
32293;DHT22;43233;48.608;8.838;2022-09-24T05:00:33;11.20;99.90
32293;DHT22;43233;48.608;8.838;2022-09-24T05:03:00;11.10;99.90
32293;DHT22;43233;48.608;8.838;2022-09-24T05:05:30;11.10;99.90
32293;DHT22;43233;48.608;8.838;2022-09-24T05:07:57;11.00;99.90
32293;DHT22;43233;48.608;8.838;2022-09-24T05:10:24;11.00;99.90
32293;DHT22;43233;48.608;8.838;2022-09-24T05:12:50;10.90;99.90
32293;DHT22;43233;48.608;8.838;2022-09-24T05:15:16;10.90;99.90
32293;DHT22;43233;48.608;8.838;2022-09-24T05:17:43;10.90;99.90
32293;DHT22;43233;48.608;8.838;2022-09-24T05:20:09;10.90;99.90
32293;DHT22;43233;48.608;8.838;2022-09-24T05:22:40;10.80;99.90
32293;DHT22;43233;48.608;8.838;2022-09-24T05:25:06;10.90;99.90
32293;DHT22;43233;48.608;8.838;2022-09-24T05:27:31;10.80;99.90
32293;DHT22;43233;48.608;8.838;2022-09-24T05:29:57;10.90;99.90
32293;DHT22;43233;48.608;8.838;2022-09-24T05:32:24;10.80;99.90
32293;DHT22;43233;48.608;8.838;2022-09-24T05:34:49;10.80;99.90
32293;DHT22;43233;48.608;8.838;2022-09-24T05:37:15;10.80;99.90
32293;DHT22;43233;48.608;8.838;2022-09-24T05:39:41;10.70;99.90
32293;DHT22;43233;48.608;8.838;2022-09-24T05:42:09;10.70;99.90
32293;DHT22;43233;48.608;8.838;2022-09-24T05:44:35;10.80;99.90
32293;DHT22;43233;48.608;8.838;2022-09-24T05:47:01;10.80;99.90
32293;DHT22;43233;48.608;8.838;2022-09-24T05:49:27;10.80;99.90
32293;DHT22;43233;48.608;8.838;2022-09-24T05:51:52;10.80;99.90
32293;DHT22;43233;48.608;8.838;2022-09-24T05:54:18;10.80;99.90
32293;DHT22;43233;48.608;8.838;2022-09-24T05:56:44;10.80;99.90
32293;DHT22;43233;48.608;8.838;2022-09-24T05:59:10;10.80;99.90
32293;DHT22;43233;48.608;8.838;2022-09-24T06:01:36;10.80;99.90
32293;DHT22;43233;48.608;8.838;2022-09-24T06:04:02;10.90;99.90
32293;DHT22;43233;48.608;8.838;2022-09-24T06:06:27;10.90;99.90
32293;DHT22;43233;48.608;8.838;2022-09-24T06:08:53;10.90;99.90
32293;DHT22;43233;48.608;8.838;2022-09-24T06:11:19;10.90;99.90
32293;DHT22;43233;48.608;8.838;2022-09-24T06:13:50;10.90;99.90
32293;DHT22;43233;48.608;8.838;2022-09-24T06:16:16;10.80;99.90
32293;DHT22;43233;48.608;8.838;2022-09-24T06:18:42;10.80;99.90
32293;DHT22;43233;48.608;8.838;2022-09-24T06:21:13;10.80;99.90
32293;DHT22;43233;48.608;8.838;2022-09-24T06:23:40;10.80;99.90
32293;DHT22;43233;48.608;8.838;2022-09-24T06:26:08;10.80;99.90
32293;DHT22;43233;48.608;8.838;2022-09-24T06:28:34;10.80;99.90
32293;DHT22;43233;48.608;8.838;2022-09-24T06:31:00;10.80;99.90
32293;DHT22;43233;48.608;8.838;2022-09-24T06:33:26;10.80;99.90
32293;DHT22;43233;48.608;8.838;2022-09-24T06:35:53;10.90;99.90
32293;DHT22;43233;48.608;8.838;2022-09-24T06:38:19;11.00;99.90
32293;DHT22;43233;48.608;8.838;2022-09-24T06:40:46;11.00;99.90
32293;DHT22;43233;48.608;8.838;2022-09-24T06:43:13;11.00;99.90
32293;DHT22;43233;48.608;8.838;2022-09-24T06:45:40;11.10;99.90
32293;DHT22;43233;48.608;8.838;2022-09-24T06:48:12;11.00;99.90
32293;DHT22;43233;48.608;8.838;2022-09-24T06:50:40;11.10;99.90
32293;DHT22;43233;48.608;8.838;2022-09-24T06:53:07;11.10;99.90
32293;DHT22;43233;48.608;8.838;2022-09-24T06:55:36;11.10;99.90
32293;DHT22;43233;48.608;8.838;2022-09-24T06:58:07;11.10;99.90
32293;DHT22;43233;48.608;8.838;2022-09-24T07:00:34;11.10;99.90
32293;DHT22;43233;48.608;8.838;2022-09-24T07:03:00;11.20;99.90
32293;DHT22;43233;48.608;8.838;2022-09-24T07:05:26;11.10;99.90
32293;DHT22;43233;48.608;8.838;2022-09-24T07:07:51;11.10;99.90
32293;DHT22;43233;48.608;8.838;2022-09-24T07:10:17;11.20;99.90
32293;DHT22;43233;48.608;8.838;2022-09-24T07:12:43;11.20;99.90
32293;DHT22;43233;48.608;8.838;2022-09-24T07:15:09;11.20;99.90
32293;DHT22;43233;48.608;8.838;2022-09-24T07:17:36;11.20;99.90
32293;DHT22;43233;48.608;8.838;2022-09-24T07:20:02;11.20;99.90
32293;DHT22;43233;48.608;8.838;2022-09-24T07:22:29;11.30;99.90
32293;DHT22;43233;48.608;8.838;2022-09-24T07:24:54;11.20;99.90
32293;DHT22;43233;48.608;8.838;2022-09-24T07:27:20;11.30;99.90
32293;DHT22;43233;48.608;8.838;2022-09-24T07:29:47;11.40;99.90
32293;DHT22;43233;48.608;8.838;2022-09-24T07:32:14;11.40;99.90
32293;DHT22;43233;48.608;8.838;2022-09-24T07:34:40;11.40;99.90
32293;DHT22;43233;48.608;8.838;2022-09-24T07:37:06;11.50;99.90
32293;DHT22;43233;48.608;8.838;2022-09-24T07:39:32;11.50;99.90
32293;DHT22;43233;48.608;8.838;2022-09-24T07:41:58;11.50;99.90
32293;DHT22;43233;48.608;8.838;2022-09-24T07:44:26;11.60;99.90
32293;DHT22;43233;48.608;8.838;2022-09-24T07:46:53;11.60;99.90
32293;DHT22;43233;48.608;8.838;2022-09-24T07:49:20;11.60;99.90
32293;DHT22;43233;48.608;8.838;2022-09-24T07:51:46;11.60;99.90
32293;DHT22;43233;48.608;8.838;2022-09-24T07:54:11;11.70;99.90
32293;DHT22;43233;48.608;8.838;2022-09-24T07:56:37;11.80;99.90
32293;DHT22;43233;48.608;8.838;2022-09-24T07:59:04;11.80;99.90
32293;DHT22;43233;48.608;8.838;2022-09-24T08:01:35;11.80;99.90
32293;DHT22;43233;48.608;8.838;2022-09-24T08:04:02;12.00;99.90
32293;DHT22;43233;48.608;8.838;2022-09-24T08:06:30;12.00;99.90
32293;DHT22;43233;48.608;8.838;2022-09-24T08:08:58;12.00;99.90
32293;DHT22;43233;48.608;8.838;2022-09-24T08:11:24;12.10;99.90
32293;DHT22;43233;48.608;8.838;2022-09-24T08:13:50;12.10;99.90
32293;DHT22;43233;48.608;8.838;2022-09-24T08:16:16;12.20;99.90
32293;DHT22;43233;48.608;8.838;2022-09-24T08:18:42;12.20;99.90
32293;DHT22;43233;48.608;8.838;2022-09-24T08:21:09;12.20;99.90
32293;DHT22;43233;48.608;8.838;2022-09-24T08:23:37;12.20;99.90
32293;DHT22;43233;48.608;8.838;2022-09-24T08:26:03;12.20;99.90
32293;DHT22;43233;48.608;8.838;2022-09-24T08:28:30;12.20;99.90
32293;DHT22;43233;48.608;8.838;2022-09-24T08:30:59;12.20;99.90
32293;DHT22;43233;48.608;8.838;2022-09-24T08:33:28;12.20;99.90
32293;DHT22;43233;48.608;8.838;2022-09-24T08:35:58;12.20;99.90
32293;DHT22;43233;48.608;8.838;2022-09-24T08:38:24;12.30;99.90
32293;DHT22;43233;48.608;8.838;2022-09-24T08:46:39;12.30;99.90
32293;DHT22;43233;48.608;8.838;2022-09-24T08:49:42;12.30;99.90
32293;DHT22;43233;48.608;8.838;2022-09-24T08:55:19;12.30;99.90
32293;DHT22;43233;48.608;8.838;2022-09-24T09:00:58;12.30;99.90
32293;DHT22;43233;48.608;8.838;2022-09-24T09:06:11;12.40;99.90
32293;DHT22;43233;48.608;8.838;2022-09-24T09:11:32;12.40;99.90
32293;DHT22;43233;48.608;8.838;2022-09-24T09:14:04;12.40;99.90
32293;DHT22;43233;48.608;8.838;2022-09-24T09:19:11;12.50;99.90
32293;DHT22;43233;48.608;8.838;2022-09-24T09:21:40;12.70;99.90
32293;DHT22;43233;48.608;8.838;2022-09-24T09:24:23;12.80;99.90
32293;DHT22;43233;48.608;8.838;2022-09-24T09:26:54;12.70;99.90
32293;DHT22;43233;48.608;8.838;2022-09-24T09:29:22;12.90;99.90
32293;DHT22;43233;48.608;8.838;2022-09-24T09:44:39;13.30;99.90
32293;DHT22;43233;48.608;8.838;2022-09-24T09:49:38;13.40;99.90
32293;DHT22;43233;48.608;8.838;2022-09-24T09:52:15;13.50;99.90
32293;DHT22;43233;48.608;8.838;2022-09-24T09:54:42;13.60;99.90
32293;DHT22;43233;48.608;8.838;2022-09-24T09:57:13;13.60;99.90
32293;DHT22;43233;48.608;8.838;2022-09-24T09:59:45;13.80;99.90
32293;DHT22;43233;48.608;8.838;2022-09-24T10:02:21;13.80;99.90
32293;DHT22;43233;48.608;8.838;2022-09-24T10:04:52;13.90;99.90
32293;DHT22;43233;48.608;8.838;2022-09-24T10:07:19;13.90;99.90
32293;DHT22;43233;48.608;8.838;2022-09-24T10:09:45;13.90;99.90
32293;DHT22;43233;48.608;8.838;2022-09-24T10:12:17;13.90;99.90
32293;DHT22;43233;48.608;8.838;2022-09-24T10:15:01;13.90;99.90
32293;DHT22;43233;48.608;8.838;2022-09-24T10:17:30;13.90;99.90
32293;DHT22;43233;48.608;8.838;2022-09-24T10:20:00;13.90;99.90
32293;DHT22;43233;48.608;8.838;2022-09-24T10:22:26;13.90;99.90
32293;DHT22;43233;48.608;8.838;2022-09-24T10:24:55;13.90;99.90
32293;DHT22;43233;48.608;8.838;2022-09-24T10:27:43;14.00;99.90
32293;DHT22;43233;48.608;8.838;2022-09-24T10:30:16;14.10;99.90
32293;DHT22;43233;48.608;8.838;2022-09-24T10:33:02;14.20;99.90
32293;DHT22;43233;48.608;8.838;2022-09-24T10:35:30;14.30;99.90
32293;DHT22;43233;48.608;8.838;2022-09-24T10:37:59;14.40;99.90
32293;DHT22;43233;48.608;8.838;2022-09-24T10:40:27;14.50;99.90
32293;DHT22;43233;48.608;8.838;2022-09-24T10:43:01;14.70;99.90
32293;DHT22;43233;48.608;8.838;2022-09-24T10:45:42;14.80;99.90
32293;DHT22;43233;48.608;8.838;2022-09-24T10:48:43;15.00;99.90
32293;DHT22;43233;48.608;8.838;2022-09-24T10:54:22;15.20;99.90
32293;DHT22;43233;48.608;8.838;2022-09-24T10:56:54;15.30;99.90
32293;DHT22;43233;48.608;8.838;2022-09-24T11:05:32;15.10;99.90
32293;DHT22;43233;48.608;8.838;2022-09-24T11:13:56;15.10;99.90
32293;DHT22;43233;48.608;8.838;2022-09-24T11:16:54;15.10;99.90
32293;DHT22;43233;48.608;8.838;2022-09-24T11:19:48;15.20;99.90
32293;DHT22;43233;48.608;8.838;2022-09-24T11:31:19;15.00;99.90
32293;DHT22;43233;48.608;8.838;2022-09-24T11:33:59;14.90;99.90
32293;DHT22;43233;48.608;8.838;2022-09-24T11:36:47;14.80;99.90
32293;DHT22;43233;48.608;8.838;2022-09-24T11:48:15;14.70;99.90
32293;DHT22;43233;48.608;8.838;2022-09-24T11:53:42;14.70;99.90
32293;DHT22;43233;48.608;8.838;2022-09-24T11:59:10;14.80;99.90
32293;DHT22;43233;48.608;8.838;2022-09-24T12:01:39;14.80;99.90
32293;DHT22;43233;48.608;8.838;2022-09-24T12:04:39;14.80;99.90
32293;DHT22;43233;48.608;8.838;2022-09-24T12:07:36;14.70;99.90
32293;DHT22;43233;48.608;8.838;2022-09-24T12:10:33;14.70;99.90
32293;DHT22;43233;48.608;8.838;2022-09-24T12:15:49;14.60;99.90
32293;DHT22;43233;48.608;8.838;2022-09-24T12:18:27;14.60;99.90
32293;DHT22;43233;48.608;8.838;2022-09-24T12:20:58;14.60;99.90
32293;DHT22;43233;48.608;8.838;2022-09-24T12:23:30;14.60;99.90
32293;DHT22;43233;48.608;8.838;2022-09-24T12:25:59;14.60;99.90
32293;DHT22;43233;48.608;8.838;2022-09-24T12:28:30;14.60;99.90
32293;DHT22;43233;48.608;8.838;2022-09-24T12:34:28;14.70;99.90
32293;DHT22;43233;48.608;8.838;2022-09-24T12:37:06;14.70;99.90
32293;DHT22;43233;48.608;8.838;2022-09-24T12:39:37;14.70;99.90
32293;DHT22;43233;48.608;8.838;2022-09-24T12:42:09;14.80;99.90
32293;DHT22;43233;48.608;8.838;2022-09-24T12:44:51;14.80;99.90
32293;DHT22;43233;48.608;8.838;2022-09-24T12:47:23;14.80;99.90
32293;DHT22;43233;48.608;8.838;2022-09-24T12:49:59;14.90;99.90
32293;DHT22;43233;48.608;8.838;2022-09-24T12:52:45;14.90;99.90
32293;DHT22;43233;48.608;8.838;2022-09-24T12:55:26;14.90;99.90
32293;DHT22;43233;48.608;8.838;2022-09-24T12:57:57;15.00;99.90
32293;DHT22;43233;48.608;8.838;2022-09-24T13:00:41;15.00;99.90
32293;DHT22;43233;48.608;8.838;2022-09-24T13:03:31;15.10;99.90
32293;DHT22;43233;48.608;8.838;2022-09-24T13:06:00;15.10;99.90
32293;DHT22;43233;48.608;8.838;2022-09-24T13:08:37;15.10;99.90
32293;DHT22;43233;48.608;8.838;2022-09-24T13:11:23;15.10;99.90
32293;DHT22;43233;48.608;8.838;2022-09-24T13:16:28;15.20;99.90
32293;DHT22;43233;48.608;8.838;2022-09-24T13:18:58;15.30;99.90
32293;DHT22;43233;48.608;8.838;2022-09-24T13:21:28;15.40;99.90
32293;DHT22;43233;48.608;8.838;2022-09-24T13:23:55;15.90;99.90
32293;DHT22;43233;48.608;8.838;2022-09-24T13:28:57;16.70;99.90
32293;DHT22;43233;48.608;8.838;2022-09-24T13:31:34;16.90;99.90
32293;DHT22;43233;48.608;8.838;2022-09-24T13:36:42;17.00;99.90
32293;DHT22;43233;48.608;8.838;2022-09-24T13:39:15;17.00;99.90
32293;DHT22;43233;48.608;8.838;2022-09-24T13:44:37;17.00;99.90
32293;DHT22;43233;48.608;8.838;2022-09-24T13:49:36;16.80;99.90
32293;DHT22;43233;48.608;8.838;2022-09-24T13:52:11;16.80;99.90
32293;DHT22;43233;48.608;8.838;2022-09-24T13:54:48;16.70;99.90
32293;DHT22;43233;48.608;8.838;2022-09-24T13:57:24;16.60;99.90
32293;DHT22;43233;48.608;8.838;2022-09-24T14:03:19;16.70;99.90
32293;DHT22;43233;48.608;8.838;2022-09-24T14:05:46;16.80;99.90
32293;DHT22;43233;48.608;8.838;2022-09-24T14:08:13;16.70;99.90
32293;DHT22;43233;48.608;8.838;2022-09-24T14:10:41;16.70;99.90
32293;DHT22;43233;48.608;8.838;2022-09-24T14:13:22;16.60;99.90
32293;DHT22;43233;48.608;8.838;2022-09-24T14:15:51;16.70;99.90
32293;DHT22;43233;48.608;8.838;2022-09-24T14:18:17;16.80;99.90
32293;DHT22;43233;48.608;8.838;2022-09-24T14:20:44;16.80;99.90
32293;DHT22;43233;48.608;8.838;2022-09-24T14:23:18;16.80;99.90
32293;DHT22;43233;48.608;8.838;2022-09-24T14:25:46;16.80;99.90
32293;DHT22;43233;48.608;8.838;2022-09-24T14:28:13;16.80;99.90
32293;DHT22;43233;48.608;8.838;2022-09-24T14:30:51;16.80;99.90
32293;DHT22;43233;48.608;8.838;2022-09-24T14:33:20;17.00;99.90
32293;DHT22;43233;48.608;8.838;2022-09-24T14:35:48;17.00;99.90
32293;DHT22;43233;48.608;8.838;2022-09-24T14:38:25;17.00;99.90
32293;DHT22;43233;48.608;8.838;2022-09-24T14:41:18;17.00;99.90
32293;DHT22;43233;48.608;8.838;2022-09-24T14:43:48;17.00;99.90
32293;DHT22;43233;48.608;8.838;2022-09-24T14:46:31;16.90;99.90
32293;DHT22;43233;48.608;8.838;2022-09-24T14:49:05;16.90;99.90
32293;DHT22;43233;48.608;8.838;2022-09-24T14:51:31;16.90;99.90
32293;DHT22;43233;48.608;8.838;2022-09-24T14:53:59;17.30;99.90
32293;DHT22;43233;48.608;8.838;2022-09-24T14:56:31;17.90;99.90
32293;DHT22;43233;48.608;8.838;2022-09-24T14:58:58;18.70;99.90
32293;DHT22;43233;48.608;8.838;2022-09-24T15:01:30;19.50;99.90
32293;DHT22;43233;48.608;8.838;2022-09-24T15:04:03;20.50;99.90
32293;DHT22;43233;48.608;8.838;2022-09-24T15:06:44;21.30;90.00
32293;DHT22;43233;48.608;8.838;2022-09-24T15:09:27;21.60;88.60
32293;DHT22;43233;48.608;8.838;2022-09-24T15:11:54;21.60;90.20
32293;DHT22;43233;48.608;8.838;2022-09-24T15:14:31;21.50;88.30
32293;DHT22;43233;48.608;8.838;2022-09-24T15:17:07;21.20;85.20
32293;DHT22;43233;48.608;8.838;2022-09-24T15:19:34;20.90;83.40
32293;DHT22;43233;48.608;8.838;2022-09-24T15:22:02;20.50;85.60
32293;DHT22;43233;48.608;8.838;2022-09-24T15:24:27;20.10;89.50
32293;DHT22;43233;48.608;8.838;2022-09-24T15:29:27;19.50;94.50
32293;DHT22;43233;48.608;8.838;2022-09-24T15:31:53;19.20;98.20
32293;DHT22;43233;48.608;8.838;2022-09-24T15:34:20;19.20;99.80
32293;DHT22;43233;48.608;8.838;2022-09-24T15:36:48;18.90;99.90
32293;DHT22;43233;48.608;8.838;2022-09-24T15:39:15;18.60;99.90
32293;DHT22;43233;48.608;8.838;2022-09-24T15:41:42;18.50;99.90
32293;DHT22;43233;48.608;8.838;2022-09-24T15:44:21;18.40;99.90
32293;DHT22;43233;48.608;8.838;2022-09-24T15:46:48;18.10;99.90
32293;DHT22;43233;48.608;8.838;2022-09-24T15:49:16;17.90;99.90
32293;DHT22;43233;48.608;8.838;2022-09-24T15:51:54;17.80;99.90
32293;DHT22;43233;48.608;8.838;2022-09-24T15:54:20;17.80;99.90
32293;DHT22;43233;48.608;8.838;2022-09-24T15:56:46;18.00;99.90
32293;DHT22;43233;48.608;8.838;2022-09-24T15:59:17;18.40;99.90
32293;DHT22;43233;48.608;8.838;2022-09-24T16:01:44;18.80;99.90
32293;DHT22;43233;48.608;8.838;2022-09-24T16:04:10;19.50;95.70
32293;DHT22;43233;48.608;8.838;2022-09-24T16:06:37;19.90;92.40
32293;DHT22;43233;48.608;8.838;2022-09-24T16:09:03;20.20;91.50
32293;DHT22;43233;48.608;8.838;2022-09-24T16:11:29;20.60;85.40
32293;DHT22;43233;48.608;8.838;2022-09-24T16:13:55;20.70;85.70
32293;DHT22;43233;48.608;8.838;2022-09-24T16:16:21;20.90;83.20
32293;DHT22;43233;48.608;8.838;2022-09-24T16:18:47;21.10;80.20
32293;DHT22;43233;48.608;8.838;2022-09-24T16:21:13;21.00;78.50
32293;DHT22;43233;48.608;8.838;2022-09-24T16:23:38;20.60;80.70
32293;DHT22;43233;48.608;8.838;2022-09-24T16:26:04;20.20;82.30
32293;DHT22;43233;48.608;8.838;2022-09-24T16:28:30;19.80;83.50
32293;DHT22;43233;48.608;8.838;2022-09-24T16:30:56;19.40;85.00
32293;DHT22;43233;48.608;8.838;2022-09-24T16:33:23;19.10;86.00
32293;DHT22;43233;48.608;8.838;2022-09-24T16:35:49;18.80;87.90
32293;DHT22;43233;48.608;8.838;2022-09-24T16:38:15;18.50;90.00
32293;DHT22;43233;48.608;8.838;2022-09-24T16:40:41;18.20;92.10
32293;DHT22;43233;48.608;8.838;2022-09-24T16:43:07;18.00;92.60
32293;DHT22;43233;48.608;8.838;2022-09-24T16:45:32;17.80;94.80
32293;DHT22;43233;48.608;8.838;2022-09-24T16:47:58;17.60;96.20
32293;DHT22;43233;48.608;8.838;2022-09-24T16:50:24;17.40;97.50
32293;DHT22;43233;48.608;8.838;2022-09-24T16:52:50;17.30;99.40
32293;DHT22;43233;48.608;8.838;2022-09-24T16:55:19;17.10;99.90
32293;DHT22;43233;48.608;8.838;2022-09-24T16:57:44;17.00;99.90
32293;DHT22;43233;48.608;8.838;2022-09-24T17:00:11;16.90;99.90
32293;DHT22;43233;48.608;8.838;2022-09-24T17:02:37;16.80;99.90
32293;DHT22;43233;48.608;8.838;2022-09-24T17:05:09;16.60;99.90
32293;DHT22;43233;48.608;8.838;2022-09-24T17:07:34;16.50;99.90
32293;DHT22;43233;48.608;8.838;2022-09-24T17:10:00;16.40;99.90
32293;DHT22;43233;48.608;8.838;2022-09-24T17:12:39;16.20;99.90
32293;DHT22;43233;48.608;8.838;2022-09-24T17:15:05;16.20;99.90
32293;DHT22;43233;48.608;8.838;2022-09-24T17:17:31;16.00;99.90
32293;DHT22;43233;48.608;8.838;2022-09-24T17:19:57;15.90;99.90
32293;DHT22;43233;48.608;8.838;2022-09-24T17:22:23;15.80;99.90
32293;DHT22;43233;48.608;8.838;2022-09-24T17:24:48;15.70;99.90
32293;DHT22;43233;48.608;8.838;2022-09-24T17:27:14;15.60;99.90
32293;DHT22;43233;48.608;8.838;2022-09-24T17:29:39;15.50;99.90
32293;DHT22;43233;48.608;8.838;2022-09-24T17:32:06;15.50;99.90
32293;DHT22;43233;48.608;8.838;2022-09-24T17:34:32;15.50;99.90
32293;DHT22;43233;48.608;8.838;2022-09-24T17:36:58;15.40;99.90